»·PEaware :: SWA3534 MMMX-KHOU

SWA3534 :: MMMX-KHOU

FLIGHT INFORMATION

Flight Status: Arrived
Operator:
Southwest Airlines
More flights by this operator :: More flights under this callsign
Pilot: Tyler J. (19619)
Aircraft: BOEING 737-700
(B737)
More flights by this aircraft type
Origin: MMMX Lic Benito Juarez Intl
Mexico
Destination: KHOU Hobby
United States
More flights between these airports :: More routes between these airports
Route: PCA TAM J177 PSX TCHDN2
File this flight plan on PilotEdge
Remarks:
Altitude:
(Current/Filed)
37,000ft
Speed:
(Current/Filed)
430kts
Departed: 29-Jun-18 07:12 AM
Arrived: 29-Jun-18 07:48 AM
Distance/Time
Traveled:
647nm/0:36
Distance/Time
To Go:
Arrived

Flight Plot

Page will automatically refresh every two minutes.

Flight plan parsing failed; only flown route is shown


Map Options




Map Legend


Flown Route
Filed Route
Departure Airport
Arrival Airport
Navaid (VOR, NDB)
Fix

Horizontal Profiles

Position Reports

Time Latitude Longitude Heading Altitude Ground
Speed
29-Jun-18 07:11 27.422179 -96.647698 12 37075ft 452kts
29-Jun-18 07:12 27.545050 -96.616798 12 37076ft 452kts
29-Jun-18 07:13 27.668154 -96.585786 13 37075ft 455kts
29-Jun-18 07:14 27.791409 -96.554632 13 37078ft 453kts
29-Jun-18 07:15 27.915030 -96.523325 13 37079ft 455kts
29-Jun-18 07:16 28.040103 -96.491558 12 37081ft 469kts
29-Jun-18 07:17 28.163510 -96.460050 11 37081ft 467kts
29-Jun-18 07:18 28.287964 -96.428402 11 37082ft 454kts
29-Jun-18 07:19 28.411307 -96.396891 11 37083ft 454kts
29-Jun-18 07:20 28.534321 -96.365415 11 35588ft 453kts
29-Jun-18 07:21 28.657998 -96.333615 11 32539ft 458kts
29-Jun-18 07:22 28.782506 -96.300149 16 29742ft 456kts
29-Jun-18 07:23 28.901123 -96.253707 18 27307ft 446kts
29-Jun-18 07:24 29.017477 -96.208287 18 24882ft 437kts
29-Jun-18 07:25 29.131628 -96.164034 18 22478ft 429kts
29-Jun-18 07:26 29.243230 -96.120535 18 20213ft 418kts
29-Jun-18 07:27 29.271493 -96.109504 18 19988ft 406kts
29-Jun-18 07:28 29.363008 -96.044782 44 18644ft 384kts
29-Jun-18 07:29 29.437315 -95.957627 45 16707ft 382kts
29-Jun-18 07:30 29.511256 -95.870773 46 14755ft 378kts
29-Jun-18 07:31 29.552590 -95.771009 77 13993ft 332kts
29-Jun-18 07:32 29.571742 -95.677610 77 13965ft 271kts
29-Jun-18 07:33 29.589817 -95.591107 78 11359ft 296kts
29-Jun-18 07:34 29.608846 -95.500178 78 9295ft 288kts
29-Jun-18 07:35 29.627128 -95.412880 79 7992ft 263kts
29-Jun-18 07:36 29.644744 -95.336434 59 7926ft 250kts
29-Jun-18 07:37 29.713138 -95.315100 3 5731ft 278kts
29-Jun-18 07:38 29.790320 -95.309380 1 4999ft 279kts
29-Jun-18 07:39 29.851402 -95.356405 313 5080ft 270kts
29-Jun-18 07:40 29.906016 -95.417986 311 5016ft 277kts
29-Jun-18 07:41 29.890342 -95.480016 188 3505ft 242kts
29-Jun-18 07:42 29.822366 -95.470875 168 3076ft 246kts
29-Jun-18 07:43 29.774604 -95.432803 135 2967ft 197kts
29-Jun-18 07:44 29.736787 -95.387552 135 2480ft 180kts
29-Jun-18 07:45 29.705616 -95.350476 135 1624ft 150kts
29-Jun-18 07:46 29.676498 -95.315872 134 828ft 149kts
29-Jun-18 07:47 29.658631 -95.294651 134 341ft 148kts
29-Jun-18 07:48 29.639223 -95.271196 97 53ft 19kts
29-Jun-18 07:49 29.639504 -95.269581 314 53ft 10kts
29-Jun-18 07:50 29.639504 -95.269581 314 53ft 10kts
29-Jun-18 07:51 29.643731 -95.274601 313 53ft 21kts
29-Jun-18 07:52 29.645103 -95.276227 314 53ft 16kts
29-Jun-18 07:53 29.648426 -95.277920 45 53ft 23kts
29-Jun-18 07:54 29.652631 -95.273155 43 53ft 22kts
29-Jun-18 07:55 29.655293 -95.273022 300 53ft 8kts
29-Jun-18 07:56 29.654955 -95.273825 211 53ft 0kts
29-Jun-18 07:57 29.654955 -95.273825 211 53ft 0kts
29-Jun-18 07:58 29.654955 -95.273825 211 53ft 0kts
29-Jun-18 07:59 29.654955 -95.273825 211 53ft 0kts
29-Jun-18 08:00 29.654955 -95.273825 211 53ft 0kts
29-Jun-18 08:01 29.654955 -95.273825 211 53ft 0kts
29-Jun-18 08:02 29.654955 -95.273825 211 53ft 0kts

Navigation Log

Ident Type
Flight plan parsing failed, navigation log unavailable